Terminal Aerodrome Forecast
Issued by NWS

Home | Current Version | Previous Version | Text Only | Print | Product List | Glossary On
Versions: 1 2 3 4 5 6 7 8 9 10 11 12 13 14 15 16 17 18 19 20 21 22 23
000
FTUS43 KLSX 072320
TAFUIN
TAF
KUIN 072320Z 0800/0824 03012KT 5SM HZ SCT025 BKN050
     FM080100 05005KT 6SM BR SCT040 BKN250
     FM080700 10005KT 6SM BR SCT040 BKN250
     FM081500 11007KT 5SM -RA BR SCT012 OVC040=

USA.gov is the U.S. government's official web portal to all federal, state and local government web resources and services.